Time;durP1;ratioP1;P1;durP2;ratioP2;P2;SDS_P1;SDS_P2;PMS_P1;PMS_P2;Temp;Humidity;BMP_temperature;BMP_pressure;BME280_temperature;BME280_humidity;BME280_pressure;Samples;Min_cycle;Max_cycle;Signal;HPM_P1;HPM_P2
2023/08/06 00:00:42;;;;;;;3.53;3.03;;;;;;;;;;5030171;28;20236;-52
2023/08/06 00:03:08;;;;;;;3.37;3.17;;;;;;;;;;5030156;28;20227;-53
2023/08/06 00:05:34;;;;;;;3.77;3.33;;;;;;;;;;5030213;28;20212;-51
2023/08/06 00:08:00;;;;;;;3.13;2.83;;;;;;;;;;5030222;28;20232;-51
2023/08/06 00:10:26;;;;;;;2.97;2.77;;;;;;;;;;5030029;28;20234;-51
2023/08/06 00:12:52;;;;;;;3.20;2.90;;;;;;;;;;5030261;28;20277;-51
2023/08/06 00:15:19;;;;;;;3.50;3.20;;;;;;;;;;5029977;28;20616;-51
2023/08/06 00:17:45;;;;;;;3.50;3.20;;;;;;;;;;5030012;28;20205;-52
2023/08/06 00:20:12;;;;;;;4.70;3.40;;;;;;;;;;5029922;28;20628;-52
2023/08/06 00:22:38;;;;;;;4.77;3.30;;;;;;;;;;5030183;28;20246;-53
2023/08/06 00:25:05;;;;;;;4.37;3.20;;;;;;;;;;5030066;28;20261;-51
2023/08/06 00:27:32;;;;;;;3.87;3.47;;;;;;;;;;5029867;28;20205;-52
2023/08/06 00:29:58;;;;;;;4.13;3.77;;;;;;;;;;5029927;28;20638;-52
2023/08/06 00:32:25;;;;;;;3.53;3.23;;;;;;;;;;5029758;28;20255;-51
2023/08/06 00:34:51;;;;;;;4.03;3.43;;;;;;;;;;5030146;28;20296;-52
2023/08/06 00:37:17;;;;;;;4.00;3.60;;;;;;;;;;5029815;28;20701;-52
2023/08/06 00:39:44;;;;;;;4.60;3.57;;;;;;;;;;5030022;28;20200;-50
2023/08/06 00:42:10;;;;;;;4.83;3.87;;;;;;;;;;5030974;28;20228;-52
2023/08/06 00:44:36;;;;;;;4.10;3.70;;;;;;;;;;5033754;28;20205;-51
2023/08/06 00:47:02;;;;;;;4.97;4.43;;;;;;;;;;5033468;28;20211;-53
2023/08/06 00:49:29;;;;;;;3.90;3.50;;;;;;;;;;5033150;28;20209;-52
2023/08/06 00:51:55;;;;;;;3.80;3.50;;;;;;;;;;5033333;28;20263;-52
2023/08/06 00:54:21;;;;;;;4.30;3.90;;;;;;;;;;5033313;28;20197;-52
2023/08/06 00:56:48;;;;;;;4.43;4.03;;;;;;;;;;5033432;28;20204;-52
2023/08/06 00:59:14;;;;;;;4.20;3.80;;;;;;;;;;5033056;28;20616;-52
2023/08/06 01:01:40;;;;;;;4.10;3.70;;;;;;;;;;5033062;28;20681;-52
2023/08/06 01:04:07;;;;;;;4.77;3.53;;;;;;;;;;5033125;28;20197;-52
2023/08/06 01:06:39;;;;;;;4.03;3.63;;;;;;;;;;5033263;28;20193;-52
2023/08/06 01:09:13;;;;;;;4.17;3.60;;;;;;;;;;5033151;28;20201;-52
2023/08/06 01:11:47;;;;;;;4.37;3.97;;;;;;;;;;5032860;28;20229;-52
2023/08/06 01:14:16;;;;;;;6.50;3.87;;;;;;;;;;5032876;28;20806;-52
2023/08/06 01:16:43;;;;;;;3.97;3.67;;;;;;;;;;5032842;28;20289;-52
2023/08/06 01:19:16;;;;;;;3.50;3.20;;;;;;;;;;5032778;28;20205;-52
2023/08/06 01:21:43;;;;;;;3.60;3.30;;;;;;;;;;5032752;28;20375;-52
2023/08/06 01:24:09;;;;;;;4.40;3.63;;;;;;;;;;5032427;28;20232;-52
2023/08/06 01:26:38;;;;;;;3.93;3.30;;;;;;;;;;5032906;28;20199;-52
2023/08/06 01:29:08;;;;;;;3.63;3.33;;;;;;;;;;5032829;28;20200;-51
2023/08/06 01:31:37;;;;;;;4.10;3.53;;;;;;;;;;5032796;28;20224;-51
2023/08/06 01:34:04;;;;;;;4.80;3.60;;;;;;;;;;5032508;28;20231;-51
2023/08/06 01:36:30;;;;;;;3.90;3.60;;;;;;;;;;5032538;28;20201;-52
2023/08/06 01:38:58;;;;;;;3.60;3.30;;;;;;;;;;5032389;28;20227;-51
2023/08/06 01:41:24;;;;;;;3.63;3.33;;;;;;;;;;5032443;28;20201;-52
2023/08/06 01:43:50;;;;;;;3.87;3.47;;;;;;;;;;5032506;28;20630;-51
2023/08/06 01:46:16;;;;;;;4.13;3.73;;;;;;;;;;5032344;28;20212;-52
2023/08/06 01:48:42;;;;;;;3.80;3.50;;;;;;;;;;5032258;28;20239;-52
2023/08/06 01:51:08;;;;;;;3.70;3.40;;;;;;;;;;5032123;28;20236;-52
2023/08/06 01:53:34;;;;;;;3.73;3.40;;;;;;;;;;5031153;28;20308;-52
2023/08/06 01:56:01;;;;;;;4.30;3.90;;;;;;;;;;5032252;28;20200;-52
2023/08/06 01:58:28;;;;;;;5.27;3.37;;;;;;;;;;5032219;28;20205;-52
2023/08/06 02:00:54;;;;;;;3.57;3.27;;;;;;;;;;5032061;28;20188;-52
2023/08/06 02:03:20;;;;;;;3.60;3.30;;;;;;;;;;5032075;28;20601;-52
2023/08/06 02:05:46;;;;;;;4.90;3.67;;;;;;;;;;5031737;28;20247;-53
2023/08/06 02:08:12;;;;;;;4.13;3.60;;;;;;;;;;5031810;28;20201;-52
2023/08/06 02:10:38;;;;;;;3.77;3.47;;;;;;;;;;5032052;28;20228;-52
2023/08/06 02:13:05;;;;;;;3.83;3.53;;;;;;;;;;5031924;28;20193;-51
2023/08/06 02:15:31;;;;;;;4.00;3.60;;;;;;;;;;5031866;28;20196;-51
2023/08/06 02:17:57;;;;;;;3.80;3.50;;;;;;;;;;5031765;28;20244;-51
2023/08/06 02:20:23;;;;;;;4.30;3.23;;;;;;;;;;5031693;28;20217;-52
2023/08/06 02:22:49;;;;;;;4.30;4.00;;;;;;;;;;5031819;28;20247;-52
2023/08/06 02:25:16;;;;;;;4.50;4.10;;;;;;;;;;5031360;28;20774;-52
2023/08/06 02:30:51;;;;;;;3.60;3.30;;;;;;;;;;5031330;28;20227;-51
2023/08/06 02:33:17;;;;;;;4.30;4.00;;;;;;;;;;5031464;28;20724;-52
2023/08/06 02:35:43;;;;;;;4.30;4.00;;;;;;;;;;5031290;28;20539;-51
2023/08/06 02:38:09;;;;;;;4.23;3.83;;;;;;;;;;5031387;28;20197;-54
2023/08/06 02:40:35;;;;;;;4.60;4.20;;;;;;;;;;5031609;28;20193;-52
2023/08/06 02:43:01;;;;;;;5.20;4.80;;;;;;;;;;5031183;28;20728;-52
2023/08/06 02:45:27;;;;;;;4.73;4.20;;;;;;;;;;5031262;28;20196;-52
2023/08/06 02:47:54;;;;;;;6.93;4.93;;;;;;;;;;5031006;28;20204;-52
2023/08/06 02:50:20;;;;;;;5.00;4.60;;;;;;;;;;5031294;28;20311;-52
2023/08/06 02:52:46;;;;;;;4.93;4.43;;;;;;;;;;5030981;28;20296;-51
2023/08/06 02:55:12;;;;;;;5.77;5.03;;;;;;;;;;5031153;28;20280;-51
2023/08/06 02:57:38;;;;;;;5.83;5.23;;;;;;;;;;5031138;28;20671;-50
2023/08/06 03:00:06;;;;;;;6.87;6.03;;;;;;;;;;5031059;28;20198;-52
2023/08/06 03:02:32;;;;;;;7.23;6.07;;;;;;;;;;5030881;28;20221;-51
2023/08/06 03:04:59;;;;;;;7.33;6.47;;;;;;;;;;5030413;28;20207;-51
2023/08/06 03:07:25;;;;;;;7.17;6.57;;;;;;;;;;5030962;28;20210;-52
2023/08/06 03:09:51;;;;;;;8.30;7.60;;;;;;;;;;5030971;28;20193;-52
2023/08/06 03:12:17;;;;;;;8.07;7.37;;;;;;;;;;5030827;28;20315;-51
2023/08/06 03:14:43;;;;;;;8.53;7.37;;;;;;;;;;5030699;28;20208;-52
2023/08/06 03:17:09;;;;;;;8.43;7.63;;;;;;;;;;5030614;28;20208;-52
2023/08/06 03:19:35;;;;;;;8.47;7.67;;;;;;;;;;5030973;28;20201;-51
2023/08/06 03:22:02;;;;;;;8.50;7.80;;;;;;;;;;5030485;28;20217;-53
2023/08/06 03:24:28;;;;;;;9.23;8.30;;;;;;;;;;5030462;28;20237;-51
2023/08/06 03:26:54;;;;;;;8.60;7.80;;;;;;;;;;5030522;28;20200;-52
2023/08/06 03:29:22;;;;;;;8.97;8.10;;;;;;;;;;5030817;28;20671;-51
2023/08/06 03:31:48;;;;;;;10.17;8.97;;;;;;;;;;5030408;28;20233;-51
2023/08/06 03:34:14;;;;;;;10.43;9.43;;;;;;;;;;5030609;28;20231;-51
2023/08/06 03:36:40;;;;;;;12.23;9.90;;;;;;;;;;5030557;28;20200;-52
2023/08/06 03:39:07;;;;;;;10.83;9.73;;;;;;;;;;5030599;28;20217;-52
2023/08/06 03:41:33;;;;;;;10.60;9.40;;;;;;;;;;5030740;28;20211;-52
2023/08/06 03:44:02;;;;;;;11.73;10.03;;;;;;;;;;5030411;28;20204;-51
2023/08/06 03:46:28;;;;;;;10.83;9.63;;;;;;;;;;5030443;28;20196;-51
2023/08/06 03:48:54;;;;;;;11.57;10.37;;;;;;;;;;5030275;28;20197;-51
2023/08/06 03:51:20;;;;;;;12.10;10.80;;;;;;;;;;5030421;28;20760;-51
2023/08/06 03:53:46;;;;;;;12.37;10.40;;;;;;;;;;5030336;28;20200;-51
2023/08/06 03:56:14;;;;;;;12.47;10.00;;;;;;;;;;5030259;28;20631;-54
2023/08/06 03:58:40;;;;;;;10.97;9.87;;;;;;;;;;5030251;28;20295;-52
2023/08/06 04:01:06;;;;;;;12.37;10.40;;;;;;;;;;5030224;28;20276;-51
2023/08/06 04:03:32;;;;;;;13.37;10.90;;;;;;;;;;5030013;28;20296;-51
2023/08/06 04:05:58;;;;;;;12.83;10.97;;;;;;;;;;5029615;28;20807;-52
2023/08/06 04:08:24;;;;;;;14.23;11.30;;;;;;;;;;5030234;28;20194;-52
2023/08/06 04:10:50;;;;;;;13.30;11.10;;;;;;;;;;5030337;28;20228;-51
2023/08/06 04:13:17;;;;;;;14.40;12.17;;;;;;;;;;5030106;28;20197;-52
2023/08/06 04:15:43;;;;;;;14.60;12.03;;;;;;;;;;5030039;28;20207;-52
2023/08/06 04:18:09;;;;;;;14.07;11.87;;;;;;;;;;5032980;28;20630;-52
2023/08/06 04:20:35;;;;;;;15.47;12.27;;;;;;;;;;5034274;28;20189;-52
2023/08/06 04:23:06;;;;;;;15.33;12.53;;;;;;;;;;5033692;28;20221;-52
2023/08/06 04:25:32;;;;;;;15.03;12.20;;;;;;;;;;5033881;28;20316;-52
2023/08/06 04:27:58;;;;;;;16.77;12.40;;;;;;;;;;5033837;28;20629;-52
2023/08/06 04:30:25;;;;;;;14.97;12.17;;;;;;;;;;5033727;28;20201;-51
2023/08/06 04:32:51;;;;;;;15.57;12.63;;;;;;;;;;5033769;28;20262;-51
2023/08/06 04:35:17;;;;;;;15.03;12.50;;;;;;;;;;5033793;28;20193;-52
2023/08/06 04:37:43;;;;;;;15.73;12.50;;;;;;;;;;5033568;28;20201;-52
2023/08/06 04:40:10;;;;;;;15.90;13.27;;;;;;;;;;5033478;28;20658;-52
2023/08/06 04:42:36;;;;;;;21.13;13.30;;;;;;;;;;5033755;28;20232;-51
2023/08/06 04:45:02;;;;;;;15.23;11.97;;;;;;;;;;5033413;28;20197;-51
2023/08/06 04:47:30;;;;;;;15.60;12.87;;;;;;;;;;5033368;28;20221;-52
2023/08/06 04:49:56;;;;;;;15.63;13.03;;;;;;;;;;5033253;28;20204;-52
2023/08/06 04:52:22;;;;;;;15.97;12.77;;;;;;;;;;5033417;28;20300;-52
2023/08/06 04:54:48;;;;;;;18.47;13.10;;;;;;;;;;5033415;28;20681;-52
2023/08/06 04:57:14;;;;;;;17.43;12.67;;;;;;;;;;5033375;28;20197;-53
2023/08/06 04:59:40;;;;;;;17.63;14.03;;;;;;;;;;5033363;28;20208;-52
2023/08/06 05:02:06;;;;;;;17.27;14.30;;;;;;;;;;5033195;28;20272;-52
2023/08/06 05:04:33;;;;;;;16.17;12.50;;;;;;;;;;5033291;28;20197;-52
2023/08/06 05:07:00;;;;;;;16.73;13.33;;;;;;;;;;5032962;28;20679;-52
2023/08/06 05:09:26;;;;;;;16.57;13.43;;;;;;;;;;5033113;28;20203;-52
2023/08/06 05:11:52;;;;;;;15.97;13.07;;;;;;;;;;5032980;28;20236;-51
2023/08/06 05:14:18;;;;;;;15.27;12.50;;;;;;;;;;5033115;28;20205;-51
2023/08/06 05:16:44;;;;;;;15.70;12.13;;;;;;;;;;5032739;28;20227;-51
2023/08/06 05:19:10;;;;;;;14.83;12.43;;;;;;;;;;5033024;28;20200;-51
2023/08/06 05:21:37;;;;;;;17.43;12.63;;;;;;;;;;5032965;28;20227;-52
2023/08/06 05:24:04;;;;;;;14.80;12.17;;;;;;;;;;5032704;28;20327;-51
2023/08/06 05:26:30;;;;;;;14.13;11.63;;;;;;;;;;5032720;28;20208;-52
2023/08/06 05:28:56;;;;;;;14.33;12.27;;;;;;;;;;5032335;28;20205;-51
2023/08/06 05:31:21;;;;;;;15.40;12.57;;;;;;;;;;5032717;28;20232;-51
2023/08/06 05:33:47;;;;;;;13.30;11.27;;;;;;;;;;5032694;28;20201;-51
2023/08/06 05:36:13;;;;;;;14.47;11.43;;;;;;;;;;5032600;28;20208;-52
2023/08/06 05:38:41;;;;;;;15.30;11.00;;;;;;;;;;5032532;28;20785;-53
2023/08/06 05:41:07;;;;;;;14.80;11.00;;;;;;;;;;5032614;28;20292;-52
2023/08/06 05:43:33;;;;;;;13.23;10.70;;;;;;;;;;5032519;28;20291;-51
2023/08/06 05:45:59;;;;;;;16.93;12.50;;;;;;;;;;5032308;28;20311;-52
2023/08/06 05:48:26;;;;;;;14.87;11.97;;;;;;;;;;5032291;28;20212;-51
2023/08/06 05:50:52;;;;;;;14.07;11.90;;;;;;;;;;5032137;28;20241;-51
2023/08/06 05:53:18;;;;;;;15.80;11.83;;;;;;;;;;5032212;28;20568;-52
2023/08/06 05:55:45;;;;;;;13.23;11.37;;;;;;;;;;5032291;28;20247;-53
2023/08/06 05:58:11;;;;;;;12.93;11.17;;;;;;;;;;5032174;28;20295;-52
2023/08/06 06:00:37;;;;;;;11.70;10.13;;;;;;;;;;5032252;28;20193;-52
2023/08/06 06:03:03;;;;;;;14.83;10.83;;;;;;;;;;5031969;28;20208;-53
2023/08/06 06:05:29;;;;;;;11.57;9.53;;;;;;;;;;5031997;28;20250;-52
2023/08/06 06:07:55;;;;;;;10.70;8.70;;;;;;;;;;5031832;28;20594;-52
2023/08/06 06:10:21;;;;;;;12.97;9.50;;;;;;;;;;5031999;28;20209;-53
2023/08/06 06:12:49;;;;;;;13.63;10.90;;;;;;;;;;5031846;28;20255;-53
2023/08/06 06:15:15;;;;;;;10.97;9.57;;;;;;;;;;5031821;28;20673;-53
2023/08/06 06:17:41;;;;;;;10.80;9.70;;;;;;;;;;5031719;28;20270;-53
2023/08/06 06:20:07;;;;;;;12.10;9.10;;;;;;;;;;5031836;28;20255;-53
2023/08/06 06:22:33;;;;;;;10.10;9.00;;;;;;;;;;5031810;28;20224;-53
2023/08/06 06:24:59;;;;;;;10.90;9.30;;;;;;;;;;5031541;28;20782;-53
2023/08/06 06:27:25;;;;;;;9.33;8.30;;;;;;;;;;5031505;28;20663;-53
2023/08/06 06:29:54;;;;;;;10.00;8.80;;;;;;;;;;5031695;28;20209;-52
2023/08/06 06:32:20;;;;;;;11.30;8.73;;;;;;;;;;5031652;28;20351;-53
2023/08/06 06:34:46;;;;;;;9.53;7.90;;;;;;;;;;5031574;28;20189;-52
2023/08/06 06:37:12;;;;;;;10.43;8.97;;;;;;;;;;5031318;28;20193;-53
2023/08/06 06:39:38;;;;;;;9.70;8.40;;;;;;;;;;5030775;28;20231;-53
2023/08/06 06:42:05;;;;;;;8.87;7.97;;;;;;;;;;5031363;28;20660;-52
2023/08/06 06:44:31;;;;;;;10.00;7.93;;;;;;;;;;5031440;28;20199;-53
2023/08/06 06:46:58;;;;;;;10.67;9.53;;;;;;;;;;5030967;28;20280;-54
2023/08/06 06:49:24;;;;;;;10.00;8.90;;;;;;;;;;5031302;28;20377;-53
2023/08/06 06:51:50;;;;;;;10.47;8.83;;;;;;;;;;5031151;28;20303;-53
2023/08/06 06:54:16;;;;;;;10.43;8.87;;;;;;;;;;5031246;28;20207;-54
2023/08/06 06:56:42;;;;;;;9.40;8.40;;;;;;;;;;5030984;28;20262;-53
2023/08/06 06:59:08;;;;;;;8.83;6.93;;;;;;;;;;5030910;28;20253;-54
2023/08/06 07:01:34;;;;;;;9.57;8.30;;;;;;;;;;5031209;28;20188;-53
2023/08/06 07:04:04;;;;;;;8.70;7.23;;;;;;;;;;5030857;28;20270;-53
2023/08/06 07:06:30;;;;;;;8.13;7.23;;;;;;;;;;5030757;28;20196;-54
2023/08/06 07:08:56;;;;;;;9.70;8.63;;;;;;;;;;5030691;28;20197;-59
2023/08/06 07:11:22;;;;;;;9.50;7.63;;;;;;;;;;5030912;28;20224;-54
2023/08/06 07:13:50;;;;;;;8.20;7.30;;;;;;;;;;5030770;28;20196;-54
2023/08/06 07:16:16;;;;;;;7.90;6.67;;;;;;;;;;5030571;28;20205;-54
2023/08/06 07:18:42;;;;;;;8.53;7.43;;;;;;;;;;5030754;28;20283;-55
2023/08/06 07:21:10;;;;;;;8.60;7.47;;;;;;;;;;5030563;28;20191;-55
2023/08/06 07:23:36;;;;;;;7.97;6.87;;;;;;;;;;5030642;28;20253;-55
2023/08/06 07:26:02;;;;;;;7.70;6.20;;;;;;;;;;5028569;28;20571;-55
2023/08/06 07:28:28;;;;;;;7.30;6.50;;;;;;;;;;5028475;28;20214;-55
2023/08/06 07:30:54;;;;;;;8.03;7.00;;;;;;;;;;5030268;28;20638;-56
2023/08/06 07:33:20;;;;;;;6.87;6.10;;;;;;;;;;5030696;28;20196;-55
2023/08/06 07:35:46;;;;;;;7.10;6.43;;;;;;;;;;5030256;28;20211;-55
2023/08/06 07:38:13;;;;;;;7.63;6.50;;;;;;;;;;5030196;28;20196;-55
2023/08/06 07:40:39;;;;;;;6.57;5.87;;;;;;;;;;5030267;28;20228;-55
2023/08/06 07:43:05;;;;;;;7.07;6.13;;;;;;;;;;5030322;28;20197;-55
2023/08/06 07:45:33;;;;;;;6.33;5.73;;;;;;;;;;5030282;28;20279;-55
2023/08/06 07:47:59;;;;;;;7.23;6.30;;;;;;;;;;5030134;28;20548;-55
2023/08/06 07:50:25;;;;;;;8.73;7.30;;;;;;;;;;5030235;28;20215;-55
2023/08/06 07:52:51;;;;;;;6.70;5.90;;;;;;;;;;5032808;28;20641;-55
2023/08/06 07:55:19;;;;;;;6.10;5.17;;;;;;;;;;5034278;28;20208;-55
2023/08/06 07:57:45;;;;;;;6.57;5.83;;;;;;;;;;5034252;28;20448;-55
2023/08/06 08:00:11;;;;;;;6.47;5.87;;;;;;;;;;5034142;28;20666;-55
2023/08/06 08:02:37;;;;;;;5.43;4.93;;;;;;;;;;5032775;28;20196;-55
2023/08/06 08:05:03;;;;;;;5.93;5.37;;;;;;;;;;5034063;28;20209;-55
2023/08/06 08:07:30;;;;;;;5.50;5.00;;;;;;;;;;5034296;28;20211;-55
2023/08/06 08:09:56;;;;;;;6.40;5.20;;;;;;;;;;5033860;28;20288;-55
2023/08/06 08:12:24;;;;;;;5.90;5.30;;;;;;;;;;5034121;28;20233;-55
2023/08/06 08:14:50;;;;;;;6.40;5.80;;;;;;;;;;5034059;28;20287;-55
2023/08/06 08:17:16;;;;;;;5.73;5.13;;;;;;;;;;5033760;28;20296;-55
2023/08/06 08:19:42;;;;;;;5.80;5.30;;;;;;;;;;5033954;28;20190;-55
2023/08/06 08:22:08;;;;;;;5.53;5.03;;;;;;;;;;5033697;28;20224;-55
2023/08/06 08:24:34;;;;;;;5.63;5.13;;;;;;;;;;5033781;28;20718;-55
2023/08/06 08:27:00;;;;;;;5.67;4.73;;;;;;;;;;5033524;28;20201;-55
2023/08/06 08:29:27;;;;;;;5.43;5.03;;;;;;;;;;5033719;28;20252;-55
2023/08/06 08:31:53;;;;;;;5.63;5.13;;;;;;;;;;5033397;28;20604;-56
2023/08/06 08:34:19;;;;;;;5.10;4.60;;;;;;;;;;5033899;28;20730;-55
2023/08/06 08:36:47;;;;;;;5.70;5.20;;;;;;;;;;5033581;28;20281;-54
2023/08/06 08:39:13;;;;;;;5.03;4.50;;;;;;;;;;5033436;28;20202;-54
2023/08/06 08:41:39;;;;;;;6.40;5.80;;;;;;;;;;5033504;28;20204;-55
2023/08/06 08:44:09;;;;;;;6.33;5.73;;;;;;;;;;5033404;28;20605;-54
2023/08/06 08:46:37;;;;;;;6.93;4.93;;;;;;;;;;5033432;28;20621;-54
2023/08/06 08:49:03;;;;;;;4.70;4.30;;;;;;;;;;5033343;28;20302;-54
2023/08/06 08:51:29;;;;;;;5.47;4.97;;;;;;;;;;5031004;28;20217;-55
2023/08/06 08:53:57;;;;;;;9.00;8.10;;;;;;;;;;5032632;28;20201;-54
2023/08/06 08:56:23;;;;;;;17.87;16.13;;;;;;;;;;5033149;28;20247;-55
2023/08/06 08:58:49;;;;;;;5.00;4.50;;;;;;;;;;5033110;28;20244;-54
2023/08/06 09:01:15;;;;;;;4.60;4.20;;;;;;;;;;5032908;28;20200;-55
2023/08/06 09:03:43;;;;;;;4.77;4.30;;;;;;;;;;5032154;28;20311;-54
2023/08/06 09:06:11;;;;;;;4.60;4.20;;;;;;;;;;5029322;28;20221;-55
2023/08/06 09:08:39;;;;;;;4.67;4.17;;;;;;;;;;5032448;28;20331;-55
2023/08/06 09:11:05;;;;;;;4.80;4.40;;;;;;;;;;5032495;28;20255;-55
2023/08/06 09:13:31;;;;;;;4.77;4.37;;;;;;;;;;5032424;28;20199;-54
2023/08/06 09:15:57;;;;;;;5.83;4.83;;;;;;;;;;5030528;28;20229;-55
2023/08/06 09:18:27;;;;;;;4.80;4.40;;;;;;;;;;5032849;28;20206;-55
2023/08/06 09:20:55;;;;;;;4.57;4.17;;;;;;;;;;5032657;28;20302;-55
2023/08/06 09:23:21;;;;;;;4.23;3.83;;;;;;;;;;5032645;28;20286;-55
2023/08/06 09:25:47;;;;;;;3.60;3.30;;;;;;;;;;5032746;28;20209;-55
2023/08/06 09:28:13;;;;;;;4.30;3.47;;;;;;;;;;5032603;28;20199;-54
2023/08/06 09:30:39;;;;;;;3.83;3.33;;;;;;;;;;5032617;28;20208;-55
2023/08/06 09:33:10;;;;;;;3.40;3.10;;;;;;;;;;5032864;28;20283;-55
2023/08/06 09:35:36;;;;;;;;;;;;;;;;;;5031478;28;20065;-55
2023/08/06 09:38:11;;;;;;;3.60;2.53;;;;;;;;;;5032157;28;20163;-55
2023/08/06 09:40:37;;;;;;;4.83;2.90;;;;;;;;;;5032295;28;20204;-55
2023/08/06 09:43:05;;;;;;;5.30;3.33;;;;;;;;;;5032118;28;20240;-55
2023/08/06 09:45:32;;;;;;;3.90;3.23;;;;;;;;;;5032086;28;20687;-55
2023/08/06 09:47:58;;;;;;;4.97;3.00;;;;;;;;;;5031822;28;20750;-55
2023/08/06 09:50:28;;;;;;;3.33;3.07;;;;;;;;;;5032330;28;20210;-55
2023/08/06 09:52:55;;;;;;;3.87;3.20;;;;;;;;;;5031525;28;20227;-55
2023/08/06 09:55:24;;;;;;;3.60;2.80;;;;;;;;;;5032316;28;20262;-54
2023/08/06 09:57:51;;;;;;;2.67;2.47;;;;;;;;;;5031827;28;20215;-55
2023/08/06 10:00:18;;;;;;;3.10;2.80;;;;;;;;;;5031736;28;20257;-54
2023/08/06 10:02:44;;;;;;;3.23;2.67;;;;;;;;;;5031637;28;20210;-55
2023/08/06 10:05:10;;;;;;;4.90;2.83;;;;;;;;;;5031441;28;20214;-55
2023/08/06 10:07:39;;;;;;;3.10;2.70;;;;;;;;;;5031581;28;20667;-55
2023/08/06 10:10:06;;;;;;;3.53;2.63;;;;;;;;;;5031642;28;20208;-55
2023/08/06 10:12:35;;;;;;;3.00;2.80;;;;;;;;;;5031436;28;20289;-55
2023/08/06 10:15:02;;;;;;;2.93;2.63;;;;;;;;;;5030350;28;20582;-54
2023/08/06 10:17:28;;;;;;;3.10;2.60;;;;;;;;;;5031266;28;20223;-55
2023/08/06 10:19:56;;;;;;;2.50;2.30;;;;;;;;;;5031369;28;20196;-55
2023/08/06 10:22:23;;;;;;;2.27;2.07;;;;;;;;;;5031418;28;20222;-54
2023/08/06 10:24:50;;;;;;;2.80;2.30;;;;;;;;;;5031455;28;20753;-54
2023/08/06 10:27:20;;;;;;;2.43;2.23;;;;;;;;;;5031333;28;20193;-54
2023/08/06 10:29:47;;;;;;;2.67;2.20;;;;;;;;;;5031319;28;20196;-54
2023/08/06 10:32:13;;;;;;;2.57;2.30;;;;;;;;;;5030998;28;20232;-54
2023/08/06 10:34:58;;;;;;;2.70;2.50;;;;;;;;;;5031101;28;20200;-55
2023/08/06 10:37:25;;;;;;;3.50;2.40;;;;;;;;;;5031102;28;20207;-54
2023/08/06 10:39:51;;;;;;;2.43;2.23;;;;;;;;;;5031490;28;20206;-54
2023/08/06 10:42:27;;;;;;;2.57;2.30;;;;;;;;;;5031176;28;20245;-55
2023/08/06 10:45:14;;;;;;;3.27;2.47;;;;;;;;;;5031415;28;20203;-55
2023/08/06 10:47:40;;;;;;;2.93;2.63;;;;;;;;;;5031141;28;20214;-55
2023/08/06 10:50:07;;;;;;;2.37;2.17;;;;;;;;;;5031171;28;20736;-55
2023/08/06 10:52:33;;;;;;;2.97;2.30;;;;;;;;;;5031014;28;20231;-55
2023/08/06 10:54:59;;;;;;;2.73;2.40;;;;;;;;;;5030933;28;20430;-55
2023/08/06 10:57:25;;;;;;;2.40;2.20;;;;;;;;;;5030928;28;20209;-55
2023/08/06 10:59:51;;;;;;;4.20;2.63;;;;;;;;;;5031061;28;20201;-55
2023/08/06 11:02:18;;;;;;;2.50;2.30;;;;;;;;;;5030947;28;20678;-55
2023/08/06 11:04:44;;;;;;;2.20;2.03;;;;;;;;;;5030767;28;20196;-55
2023/08/06 11:07:10;;;;;;;2.30;2.10;;;;;;;;;;5030408;28;20290;-55
2023/08/06 11:09:37;;;;;;;2.40;2.20;;;;;;;;;;5030969;28;20203;-53
2023/08/06 11:12:06;;;;;;;2.60;2.40;;;;;;;;;;5030636;28;20231;-53
2023/08/06 11:14:32;;;;;;;2.83;2.20;;;;;;;;;;5030717;28;20237;-53
2023/08/06 11:16:58;;;;;;;2.20;1.80;;;;;;;;;;5030443;28;20840;-54
2023/08/06 11:19:26;;;;;;;1.70;1.60;;;;;;;;;;5030581;28;20232;-54
2023/08/06 11:21:52;;;;;;;1.90;1.80;;;;;;;;;;5030615;28;20252;-54
2023/08/06 11:24:18;;;;;;;2.03;1.83;;;;;;;;;;5030477;28;20246;-54
2023/08/06 11:26:44;;;;;;;2.10;1.90;;;;;;;;;;5030209;28;20207;-54
2023/08/06 11:29:10;;;;;;;2.20;1.83;;;;;;;;;;5030357;28;20199;-54
2023/08/06 11:31:36;;;;;;;4.03;1.90;;;;;;;;;;5030601;28;20638;-54
2023/08/06 11:34:03;;;;;;;3.23;2.13;;;;;;;;;;5030531;28;20208;-54
2023/08/06 11:36:31;;;;;;;2.33;2.10;;;;;;;;;;5030535;28;20727;-54
2023/08/06 11:38:57;;;;;;;4.40;1.90;;;;;;;;;;5030211;28;20209;-54
2023/08/06 11:41:23;;;;;;;1.83;1.70;;;;;;;;;;5030506;28;20229;-54
2023/08/06 11:43:49;;;;;;;1.70;1.60;;;;;;;;;;5030419;28;20277;-54
2023/08/06 11:46:15;;;;;;;2.40;1.93;;;;;;;;;;5030039;28;20198;-54
2023/08/06 11:48:51;;;;;;;2.23;1.70;;;;;;;;;;5030142;28;20207;-54
2023/08/06 11:51:17;;;;;;;2.03;1.87;;;;;;;;;;5030135;28;20291;-54
2023/08/06 11:53:49;;;;;;;3.07;2.00;;;;;;;;;;5030173;28;20656;-54
2023/08/06 11:56:15;;;;;;;2.80;1.60;;;;;;;;;;5029985;28;20229;-54
2023/08/06 11:58:41;;;;;;;1.90;1.80;;;;;;;;;;5030103;28;20645;-54
2023/08/06 12:01:07;;;;;;;2.00;1.80;;;;;;;;;;5030295;28;20276;-54
2023/08/06 12:03:33;;;;;;;1.97;1.77;;;;;;;;;;5030225;28;20663;-54
2023/08/06 12:05:59;;;;;;;2.80;2.03;;;;;;;;;;5029960;28;20199;-54
2023/08/06 12:08:27;;;;;;;2.20;2.00;;;;;;;;;;5030103;28;20258;-54
2023/08/06 12:10:55;;;;;;;1.70;1.60;;;;;;;;;;5029955;28;20204;-54
2023/08/06 12:13:21;;;;;;;2.07;1.83;;;;;;;;;;5030313;28;20622;-54
2023/08/06 12:15:47;;;;;;;1.90;1.70;;;;;;;;;;5030090;28;20660;-54
2023/08/06 12:18:13;;;;;;;2.13;1.70;;;;;;;;;;5029954;28;20193;-54
2023/08/06 12:20:39;;;;;;;2.40;1.50;;;;;;;;;;5030062;28;20193;-54
2023/08/06 12:23:05;;;;;;;2.17;1.50;;;;;;;;;;5029949;28;20580;-55
2023/08/06 12:25:31;;;;;;;1.93;1.60;;;;;;;;;;5029683;28;20716;-55
2023/08/06 12:27:58;;;;;;;1.70;1.60;;;;;;;;;;5030237;28;20208;-54
2023/08/06 12:30:24;;;;;;;1.70;1.60;;;;;;;;;;5030183;28;20204;-54
2023/08/06 12:32:51;;;;;;;1.90;1.80;;;;;;;;;;5030102;28;20307;-54
2023/08/06 12:35:17;;;;;;;1.60;1.50;;;;;;;;;;5029980;28;20203;-54
2023/08/06 12:37:45;;;;;;;2.63;1.50;;;;;;;;;;5030346;28;20200;-54
2023/08/06 12:40:11;;;;;;;1.77;1.57;;;;;;;;;;5033627;28;20200;-54
2023/08/06 12:42:37;;;;;;;2.23;1.60;;;;;;;;;;5033709;28;20195;-54
2023/08/06 12:45:05;;;;;;;1.50;1.40;;;;;;;;;;5033570;28;20745;-55
2023/08/06 12:47:31;;;;;;;2.07;1.40;;;;;;;;;;5033369;28;20215;-54
2023/08/06 12:49:57;;;;;;;2.10;1.50;;;;;;;;;;5033499;28;20279;-54
2023/08/06 12:52:24;;;;;;;1.87;1.60;;;;;;;;;;5033077;28;20290;-55
2023/08/06 12:54:50;;;;;;;2.30;1.50;;;;;;;;;;5033504;28;20266;-55
2023/08/06 12:57:17;;;;;;;2.13;1.30;;;;;;;;;;5033046;28;20203;-54
2023/08/06 12:59:43;;;;;;;1.70;1.50;;;;;;;;;;5033786;28;20199;-54
2023/08/06 13:02:10;;;;;;;1.73;1.20;;;;;;;;;;5033567;28;20197;-55
2023/08/06 13:04:36;;;;;;;4.83;4.20;;;;;;;;;;5033779;28;20207;-54
2023/08/06 13:07:02;;;;;;;2.57;2.00;;;;;;;;;;5033497;28;20189;-54
2023/08/06 13:09:29;;;;;;;2.23;1.70;;;;;;;;;;5033477;28;20190;-54
2023/08/06 13:11:55;;;;;;;1.73;1.20;;;;;;;;;;5033343;28;20317;-54
2023/08/06 13:14:21;;;;;;;1.63;1.23;;;;;;;;;;5033693;28;20206;-55
2023/08/06 13:16:47;;;;;;;1.40;1.30;;;;;;;;;;5033421;28;20266;-55
2023/08/06 13:19:15;;;;;;;1.30;1.20;;;;;;;;;;5033166;28;20201;-55
2023/08/06 13:22:00;;;;;;;1.70;1.53;;;;;;;;;;5033303;28;20244;-54
2023/08/06 13:24:27;;;;;;;3.13;1.60;;;;;;;;;;5033296;28;20241;-54
2023/08/06 13:26:53;;;;;;;1.90;1.40;;;;;;;;;;5033421;28;20258;-53
2023/08/06 13:29:19;;;;;;;3.30;1.63;;;;;;;;;;5033266;28;20279;-54
2023/08/06 13:31:45;;;;;;;1.50;1.40;;;;;;;;;;5033088;28;20251;-54
2023/08/06 13:34:11;;;;;;;1.43;1.33;;;;;;;;;;5032872;28;20193;-54
2023/08/06 13:36:39;;;;;;;1.70;1.43;;;;;;;;;;5032920;28;20204;-54
2023/08/06 13:39:05;;;;;;;3.23;2.93;;;;;;;;;;5031298;28;20239;-53
2023/08/06 13:41:31;;;;;;;1.83;1.70;;;;;;;;;;5032901;28;20195;-54
2023/08/06 13:43:57;;;;;;;2.40;1.67;;;;;;;;;;5032751;28;20803;-54
2023/08/06 13:46:24;;;;;;;1.60;1.50;;;;;;;;;;5032642;28;20203;-54
2023/08/06 13:48:53;;;;;;;1.90;1.73;;;;;;;;;;5032714;28;20633;-54
2023/08/06 13:51:19;;;;;;;1.77;1.53;;;;;;;;;;5032454;28;20240;-54
2023/08/06 13:53:46;;;;;;;2.60;1.40;;;;;;;;;;5032501;28;20201;-53
2023/08/06 13:56:15;;;;;;;2.33;1.60;;;;;;;;;;5032257;28;20201;-54
2023/08/06 13:58:41;;;;;;;1.60;1.40;;;;;;;;;;5032602;28;20193;-54
2023/08/06 14:01:07;;;;;;;2.47;1.40;;;;;;;;;;5032334;28;20281;-54
2023/08/06 14:03:33;;;;;;;3.27;3.00;;;;;;;;;;5032406;28;20246;-53
2023/08/06 14:05:59;;;;;;;2.90;1.60;;;;;;;;;;5032128;28;20246;-54
2023/08/06 14:08:25;;;;;;;1.53;1.37;;;;;;;;;;5032152;28;20558;-54
2023/08/06 14:10:53;;;;;;;1.60;1.50;;;;;;;;;;5032473;28;20193;-54
2023/08/06 14:13:19;;;;;;;1.60;1.30;;;;;;;;;;5032358;28;20282;-53
2023/08/06 14:15:48;;;;;;;2.07;1.40;;;;;;;;;;5032018;28;20196;-54
2023/08/06 14:18:14;;;;;;;1.97;1.60;;;;;;;;;;5031840;28;20203;-53
2023/08/06 14:20:40;;;;;;;1.57;1.40;;;;;;;;;;5032051;28;20262;-53
2023/08/06 14:23:06;;;;;;;1.57;1.47;;;;;;;;;;5031910;28;20263;-54
2023/08/06 14:25:33;;;;;;;2.10;1.53;;;;;;;;;;5031834;28;20241;-54
2023/08/06 14:28:00;;;;;;;1.60;1.50;;;;;;;;;;5031762;28;20334;-54
2023/08/06 14:30:26;;;;;;;2.00;1.60;;;;;;;;;;5031697;28;20197;-53
2023/08/06 14:32:52;;;;;;;6.00;5.50;;;;;;;;;;5031892;28;20307;-54
2023/08/06 14:35:18;;;;;;;2.07;1.87;;;;;;;;;;5031744;28;20231;-54
2023/08/06 14:37:45;;;;;;;2.93;1.67;;;;;;;;;;5031705;28;20208;-53